| time (UTC) | temp F | wind direction | speed knots | gust knots | rain 1hr in | rain 24hr in | rain mn in | humidity % | barometer mb |
| 20260504201637 | 78 | 138 | 2.6 | 4.3 | 0.00 | 0.00 | 0.00 | 30 | 1043.3 |
| 20260504201135 | 77 | 180 | 0.9 | 1.7 | 0.00 | 0.00 | 0.00 | 32 | 1043.1 |
| 20260504200632 | 78 | 139 | 0.9 | 0.9 | 0.00 | 0.00 | 0.00 | 31 | 1043.5 |
| 20260504200128 | 78 | 166 | 0.9 | 0.9 | 0.00 | 0.00 | 0.00 | 31 | 1043.4 |
| 20260504195624 | 79 | 148 | 0.0 | 0.9 | 0.00 | 0.00 | 0.00 | 29 | 1043.5 |
| 20260504195121 | 78 | 164 | 1.7 | 1.7 | 0.00 | 0.00 | 0.00 | 29 | 1043.4 |
| 20260504194618 | 77 | 162 | 0.9 | 0.9 | 0.00 | 0.00 | 0.00 | 31 | 1043.8 |
| 20260504194114 | 76 | 216 | 1.7 | 1.7 | 0.00 | 0.00 | 0.00 | 31 | 1043.8 |
| 20260504193610 | 77 | 174 | 1.7 | 1.7 | 0.00 | 0.00 | 0.00 | 29 | 1043.7 |
| 20260504193109 | 77 | 134 | 0.9 | 1.7 | 0.00 | 0.00 | 0.00 | 29 | 1043.8 |
| 20260504192606 | 78 | 150 | 0.0 | 0.0 | 0.00 | 0.00 | 0.00 | 28 | 1044.0 |
| 20260504192103 | 77 | 140 | 6.1 | 7.0 | 0.00 | 0.00 | 0.00 | 29 | 1044.1 |
| 20260504191602 | 78 | 131 | 3.5 | 4.3 | 0.00 | 0.00 | 0.00 | 27 | 1043.8 |
| 20260504191058 | 77 | 129 | 1.7 | 2.6 | 0.00 | 0.00 | 0.00 | 28 | 1044.2 |
| 20260504190554 | 78 | 119 | 0.0 | 0.9 | 0.00 | 0.00 | 0.00 | 29 | 1044.1 |
| 20260504190050 | 76 | 174 | 2.6 | 2.6 | 0.00 | 0.00 | 0.00 | 32 | 1044.0 |
| 20260504185547 | 77 | 195 | 2.6 | 2.6 | 0.00 | 0.00 | 0.00 | 29 | 1044.3 |
| 20260504185044 | 76 | 143 | 2.6 | 2.6 | 0.00 | 0.00 | 0.00 | 29 | 1044.5 |
| 20260504184539 | 78 | 164 | 2.6 | 2.6 | 0.00 | 0.00 | 0.00 | 29 | 1044.6 |
| 20260504184035 | 79 | 203 | 0.9 | 1.7 | 0.00 | 0.00 | 0.00 | 27 | 1044.5 |
| 20260504183532 | 78 | 153 | 0.9 | 0.9 | 0.00 | 0.00 | 0.00 | 29 | 1044.6 |
| 20260504183030 | 78 | 160 | 0.9 | 0.9 | 0.00 | 0.00 | 0.00 | 29 | 1044.8 |
| 20260504182527 | 78 | 147 | 0.0 | 0.9 | 0.00 | 0.00 | 0.00 | 31 | 1044.7 |
| 20260504182024 | 77 | 125 | 1.7 | 1.7 | 0.00 | 0.00 | 0.00 | 29 | 1044.8 |
| 20260504181521 | 76 | 144 | 0.0 | 0.0 | 0.00 | 0.00 | 0.00 | 31 | 1044.9 |
| 20260504181014 | 76 | 148 | 0.0 | 0.0 | 0.00 | 0.00 | 0.00 | 31 | 1044.8 |
| 20260504180512 | 76 | 141 | 0.0 | 0.0 | 0.00 | 0.00 | 0.00 | 32 | 1045.0 |
| 20260504180011 | 75 | 172 | 0.9 | 1.7 | 0.00 | 0.00 | 0.00 | 32 | 1044.9 |
| 20260504175508 | 76 | 184 | 2.6 | 4.3 | 0.00 | 0.00 | 0.00 | 33 | 1045.0 |
| 20260504175005 | 75 | 178 | 1.7 | 2.6 | 0.00 | 0.00 | 0.00 | 33 | 1045.0 |
| 20260504174503 | 73 | 110 | 0.9 | 1.7 | 0.00 | 0.00 | 0.00 | 33 | 1045.1 |
| 20260504173959 | 75 | 112 | 0.9 | 0.9 | 0.00 | 0.00 | 0.00 | 33 | 1045.1 |
| 20260504173456 | 76 | 148 | 0.9 | 0.9 | 0.00 | 0.00 | 0.00 | 35 | 1045.2 |
| 20260504172953 | 75 | 96 | 0.9 | 2.6 | 0.00 | 0.00 | 0.00 | 32 | 1045.3 |
| 20260504172449 | 73 | 122 | 0.9 | 1.7 | 0.00 | 0.00 | 0.00 | 34 | 1045.3 |
| 20260504171946 | 74 | 128 | 0.9 | 1.7 | 0.00 | 0.00 | 0.00 | 32 | 1045.2 |
| 20260504171443 | 75 | 140 | 0.9 | 0.9 | 0.00 | 0.00 | 0.00 | 36 | 1045.5 |
| 20260504170940 | 74 | 172 | 1.7 | 1.7 | 0.00 | 0.00 | 0.00 | 34 | 1045.5 |
| 20260504170436 | 74 | 157 | 1.7 | 1.7 | 0.00 | 0.00 | 0.00 | 31 | 1045.8 |
| 20260504160355 | 70 | 113 | 1.7 | 1.7 | 0.00 | 0.00 | 0.00 | 39 | 1046.3 |
| 20260504150820 | 69 | 169 | 0.9 | 1.7 | 0.00 | 0.00 | 0.00 | 44 | 1046.8 |
| 20260504150316 | 69 | 142 | 0.9 | 0.9 | 0.00 | 0.00 | 0.00 | 45 | 1046.9 |
| 20260504141246 | 65 | 180 | 1.7 | 2.6 | 0.00 | 0.00 | 0.00 | 50 | 1047.0 |
| 20260504140743 | 65 | 147 | 2.6 | 4.3 | 0.00 | 0.00 | 0.00 | 49 | 1046.9 |
| 20260504140239 | 64 | 284 | 0.0 | 0.9 | 0.00 | 0.00 | 0.00 | 51 | 1046.9 |
| 20260504130708 | 59 | 143 | 0.0 | 0.0 | 0.00 | 0.00 | 0.00 | 69 | 1047.0 |
| 20260504130203 | 58 | 138 | 0.0 | 0.0 | 0.00 | 0.00 | 0.00 | 69 | 1047.0 |
| 20260504120127 | 48 | 137 | 0.0 | 0.0 | 0.00 | 0.00 | 0.00 | 92 | 1046.9 |
| 20260504110555 | 41 | 136 | 0.0 | 0.0 | 0.00 | 0.00 | 0.00 | 92 | 1046.5 |
| 20260504100517 | 41 | 138 | 0.0 | 0.0 | 0.00 | 0.00 | 0.00 | 92 | 1046.3 |
| 20260504081910 | 42 | 137 | 0.0 | 0.0 | 0.00 | 0.00 | 0.00 | 91 | 1046.5 |
| 20260504081406 | 42 | 137 | 0.0 | 0.0 | 0.00 | 0.00 | 0.00 | 91 | 1046.3 |
| 20260504080903 | 42 | 137 | 0.0 | 0.0 | 0.00 | 0.00 | 0.00 | 91 | 1046.3 |
| 20260504080400 | 42 | 137 | 0.0 | 0.0 | 0.00 | 0.00 | 0.00 | 91 | 1046.4 |
| 20260504070327 | 44 | 137 | 0.0 | 0.0 | 0.00 | 0.00 | 0.00 | 89 | 1046.4 |
| 20260504060247 | 45 | 149 | 0.0 | 0.0 | 0.00 | 0.00 | 0.00 | 86 | 1046.5 |
| 20260504050715 | 46 | 142 | 0.0 | 0.0 | 0.00 | 0.00 | 0.00 | 84 | 1047.1 |
| 20260504050212 | 46 | 142 | 0.0 | 0.0 | 0.00 | 0.00 | 0.00 | 84 | 1047.1 |
| 20260504045710 | 46 | 142 | 0.0 | 0.0 | 0.00 | 0.00 | 0.00 | 84 | 1047.0 |
| 20260504045209 | 47 | 142 | 0.0 | 0.0 | 0.00 | 0.00 | 0.00 | 83 | 1047.0 |
| 20260504044708 | 47 | 142 | 0.0 | 0.0 | 0.00 | 0.00 | 0.00 | 82 | 1046.9 |
| 20260504044204 | 47 | 142 | 0.0 | 0.0 | 0.00 | 0.00 | 0.00 | 81 | 1047.0 |
| 20260504043701 | 47 | 143 | 0.0 | 0.0 | 0.00 | 0.00 | 0.00 | 80 | 1047.3 |
| 20260504043158 | 48 | 143 | 0.0 | 0.0 | 0.00 | 0.00 | 0.00 | 79 | 1046.9 |
| 20260504042656 | 48 | 143 | 0.0 | 0.0 | 0.00 | 0.00 | 0.00 | 79 | 1047.1 |
| 20260504042152 | 48 | 143 | 0.0 | 0.0 | 0.00 | 0.00 | 0.00 | 78 | 1047.1 |
| 20260504041648 | 49 | 142 | 0.0 | 0.0 | 0.00 | 0.00 | 0.00 | 78 | 1047.1 |
| 20260504041144 | 49 | 148 | 0.0 | 0.0 | 0.00 | 0.00 | 0.00 | 77 | 1047.0 |
| 20260504040641 | 49 | 148 | 0.0 | 0.0 | 0.00 | 0.00 | 0.00 | 77 | 1046.9 |
| 20260504040138 | 50 | 147 | 0.0 | 0.0 | 0.00 | 0.00 | 0.00 | 76 | 1047.2 |
| 20260504035635 | 50 | 147 | 0.0 | 0.0 | 0.00 | 0.00 | 0.00 | 74 | 1047.1 |
| 20260504035132 | 51 | 151 | 0.0 | 0.0 | 0.00 | 0.00 | 0.00 | 72 | 1047.1 |
| 20260504034630 | 51 | 150 | 0.0 | 0.0 | 0.00 | 0.00 | 0.00 | 69 | 1046.8 |
| 20260504034126 | 50 | 156 | 0.0 | 0.0 | 0.00 | 0.00 | 0.00 | 69 | 1047.0 |
| 20260504033624 | 50 | 150 | 0.0 | 0.0 | 0.00 | 0.00 | 0.00 | 72 | 1047.0 |
| 20260504033121 | 49 | 173 | 0.9 | 1.7 | 0.00 | 0.00 | 0.00 | 73 | 1047.2 |
| 20260504032618 | 49 | 179 | 0.9 | 0.9 | 0.00 | 0.00 | 0.00 | 76 | 1047.0 |
| 20260504032115 | 49 | 146 | 0.0 | 0.0 | 0.00 | 0.00 | 0.00 | 75 | 1046.8 |
| 20260504031612 | 49 | 146 | 0.0 | 0.0 | 0.00 | 0.00 | 0.00 | 76 | 1047.1 |
| 20260504031108 | 49 | 146 | 0.0 | 0.0 | 0.00 | 0.00 | 0.00 | 77 | 1046.8 |
| 20260504030605 | 50 | 145 | 0.0 | 0.0 | 0.00 | 0.00 | 0.00 | 75 | 1046.9 |
| 20260504025559 | 50 | 145 | 0.0 | 0.0 | 0.00 | 0.00 | 0.00 | 75 | 1046.9 |
| 20260504025055 | 51 | 145 | 0.0 | 0.0 | 0.00 | 0.00 | 0.00 | 74 | 1046.9 |
| 20260504024553 | 51 | 145 | 0.0 | 0.0 | 0.00 | 0.00 | 0.00 | 74 | 1046.8 |
| 20260504024049 | 51 | 145 | 0.0 | 0.0 | 0.00 | 0.00 | 0.00 | 73 | 1046.7 |
| 20260504023546 | 52 | 145 | 0.0 | 0.0 | 0.00 | 0.00 | 0.00 | 72 | 1046.7 |
| 20260504023042 | 52 | 145 | 0.0 | 0.0 | 0.00 | 0.00 | 0.00 | 71 | 1046.5 |
| 20260504022538 | 52 | 145 | 0.0 | 0.0 | 0.00 | 0.00 | 0.00 | 70 | 1046.6 |
| 20260504022034 | 52 | 147 | 0.0 | 0.0 | 0.00 | 0.00 | 0.00 | 70 | 1046.5 |
| 20260504021532 | 52 | 147 | 0.0 | 0.0 | 0.00 | 0.00 | 0.00 | 69 | 1046.2 |
| 20260504021029 | 53 | 147 | 0.0 | 0.0 | 0.00 | 0.00 | 0.00 | 70 | 1046.4 |
| 20260504020526 | 53 | 147 | 0.0 | 0.0 | 0.00 | 0.00 | 0.00 | 68 | 1046.4 |
| 20260504020022 | 53 | 147 | 0.0 | 0.0 | 0.00 | 0.00 | 0.00 | 66 | 1046.2 |
| 20260504015518 | 53 | 147 | 0.0 | 0.0 | 0.00 | 0.00 | 0.00 | 66 | 1045.9 |
| 20260504015015 | 53 | 148 | 0.0 | 0.0 | 0.00 | 0.00 | 0.00 | 65 | 1046.1 |
| 20260504014511 | 53 | 148 | 0.0 | 0.0 | 0.00 | 0.00 | 0.00 | 64 | 1045.8 |
| 20260504014008 | 54 | 147 | 0.0 | 0.0 | 0.00 | 0.00 | 0.00 | 61 | 1046.1 |
| 20260504013506 | 54 | 147 | 0.0 | 0.0 | 0.00 | 0.00 | 0.00 | 60 | 1045.8 |
| 20260504013002 | 55 | 147 | 0.0 | 0.0 | 0.00 | 0.00 | 0.00 | 62 | 1045.6 |
| 20260504012500 | 55 | 147 | 0.0 | 0.0 | 0.00 | 0.00 | 0.00 | 62 | 1045.7 |
| 20260504011958 | 55 | 148 | 0.0 | 0.0 | 0.00 | 0.00 | 0.00 | 58 | 1045.7 |
| 20260504011454 | 56 | 149 | 0.0 | 0.0 | 0.00 | 0.00 | 0.00 | 55 | 1045.7 |
| 20260504010950 | 56 | 157 | 0.0 | 0.0 | 0.00 | 0.00 | 0.00 | 55 | 1045.5 |
| 20260504010446 | 57 | 158 | 0.0 | 0.0 | 0.00 | 0.00 | 0.00 | 55 | 1045.4 |
| 20260504005942 | 57 | 151 | 0.0 | 0.0 | 0.00 | 0.00 | 0.00 | 56 | 1045.5 |
| 20260504005439 | 57 | 151 | 0.0 | 0.0 | 0.00 | 0.00 | 0.00 | 56 | 1045.4 |
| 20260504004937 | 57 | 150 | 0.0 | 0.0 | 0.00 | 0.00 | 0.00 | 52 | 1045.5 |
| 20260504004434 | 58 | 150 | 0.0 | 0.0 | 0.00 | 0.00 | 0.00 | 51 | 1045.4 |
| 20260504003931 | 58 | 150 | 0.0 | 0.0 | 0.00 | 0.00 | 0.00 | 52 | 1045.4 |
| 20260504003427 | 59 | 150 | 0.0 | 0.0 | 0.00 | 0.00 | 0.00 | 50 | 1045.3 |
| 20260504002924 | 59 | 150 | 0.0 | 0.0 | 0.00 | 0.00 | 0.00 | 48 | 1045.2 |
| 20260504002421 | 60 | 150 | 0.0 | 0.0 | 0.00 | 0.00 | 0.00 | 49 | 1045.3 |
| 20260504001918 | 61 | 150 | 0.0 | 0.0 | 0.00 | 0.00 | 0.00 | 49 | 1045.1 |
| 20260504001416 | 61 | 152 | 0.0 | 0.0 | 0.00 | 0.00 | 0.00 | 49 | 1045.1 |
| 20260504000912 | 62 | 147 | 0.0 | 0.0 | 0.00 | 0.00 | 0.00 | 47 | 1045.1 |
| 20260504000409 | 63 | 148 | 0.0 | 0.0 | 0.00 | 0.00 | 0.00 | 43 | 1045.2 |
| 20260503235907 | 64 | 149 | 0.0 | 0.0 | 0.00 | 0.00 | 0.00 | 41 | 1045.2 |
| 20260503235405 | 64 | 147 | 0.0 | 0.0 | 0.00 | 0.00 | 0.00 | 38 | 1044.9 |
| 20260503234902 | 65 | 146 | 0.0 | 0.0 | 0.00 | 0.00 | 0.00 | 36 | 1045.1 |
| 20260503234359 | 66 | 147 | 0.0 | 0.0 | 0.00 | 0.00 | 0.00 | 35 | 1045.0 |
| 20260503233857 | 67 | 145 | 0.0 | 0.0 | 0.00 | 0.00 | 0.00 | 37 | 1045.2 |
| 20260503233353 | 67 | 145 | 0.0 | 0.0 | 0.00 | 0.00 | 0.00 | 35 | 1045.1 |
| 20260503232849 | 67 | 157 | 0.0 | 0.0 | 0.00 | 0.00 | 0.00 | 33 | 1045.2 |
| 20260503232347 | 67 | 158 | 0.9 | 0.9 | 0.00 | 0.00 | 0.00 | 31 | 1045.1 |
| 20260503231845 | 67 | 141 | 0.0 | 0.0 | 0.00 | 0.00 | 0.00 | 33 | 1045.2 |
| 20260503231341 | 68 | 146 | 0.0 | 0.0 | 0.00 | 0.00 | 0.00 | 32 | 1045.2 |
| 20260503230838 | 68 | 181 | 0.0 | 0.9 | 0.00 | 0.00 | 0.00 | 31 | 1045.2 |
| 20260503230334 | 68 | 157 | 0.0 | 0.0 | 0.00 | 0.00 | 0.00 | 30 | 1045.3 |
| 20260503225833 | 68 | 143 | 0.0 | 0.0 | 0.00 | 0.00 | 0.00 | 30 | 1045.2 |
| 20260503225328 | 69 | 146 | 0.0 | 0.9 | 0.00 | 0.00 | 0.00 | 29 | 1045.0 |
| 20260503224824 | 68 | 188 | 1.7 | 1.7 | 0.00 | 0.00 | 0.00 | 29 | 1045.2 |
| 20260503224322 | 68 | 141 | 0.9 | 0.9 | 0.00 | 0.00 | 0.00 | 30 | 1045.3 |
| 20260503223820 | 69 | 129 | 0.9 | 0.9 | 0.00 | 0.00 | 0.00 | 29 | 1045.4 |
| 20260503223317 | 68 | 146 | 0.9 | 0.9 | 0.00 | 0.00 | 0.00 | 30 | 1045.1 |
| 20260503222812 | 69 | 149 | 1.7 | 1.7 | 0.00 | 0.00 | 0.00 | 28 | 1045.4 |
| 20260503222311 | 69 | 160 | 0.9 | 1.7 | 0.00 | 0.00 | 0.00 | 29 | 1045.5 |
| 20260503221809 | 69 | 146 | 0.0 | 0.9 | 0.00 | 0.00 | 0.00 | 28 | 1045.4 |
| 20260503221307 | 69 | 128 | 0.0 | 0.9 | 0.00 | 0.00 | 0.00 | 29 | 1045.3 |
| 20260503220803 | 69 | 157 | 0.0 | 0.9 | 0.00 | 0.00 | 0.00 | 30 | 1045.4 |
| 20260503220300 | 69 | 142 | 0.0 | 0.9 | 0.00 | 0.00 | 0.00 | 29 | 1045.3 |
| 20260503215757 | 69 | 141 | 0.0 | 0.9 | 0.00 | 0.00 | 0.00 | 25 | 1045.5 |
| 20260503215253 | 69 | 227 | 1.7 | 1.7 | 0.00 | 0.00 | 0.00 | 26 | 1045.4 |
| 20260503214752 | 70 | 122 | 0.9 | 0.9 | 0.00 | 0.00 | 0.00 | 28 | 1045.4 |
| 20260503214248 | 71 | 190 | 1.7 | 1.7 | 0.00 | 0.00 | 0.00 | 27 | 1045.5 |
| 20260503213746 | 71 | 197 | 1.7 | 2.6 | 0.00 | 0.00 | 0.00 | 26 | 1045.6 |
| 20260503213243 | 71 | 112 | 1.7 | 1.7 | 0.00 | 0.00 | 0.00 | 29 | 1045.4 |
| 20260503212740 | 70 | 149 | 0.0 | 0.9 | 0.00 | 0.00 | 0.00 | 27 | 1045.6 |
| 20260503212238 | 70 | 185 | 0.9 | 0.9 | 0.00 | 0.00 | 0.00 | 27 | 1045.4 |
| 20260503211735 | 72 | 150 | 0.9 | 1.7 | 0.00 | 0.00 | 0.00 | 27 | 1045.5 |
| 20260503211231 | 71 | 149 | 1.7 | 1.7 | 0.00 | 0.00 | 0.00 | 27 | 1045.6 |
| 20260503210727 | 71 | 267 | 3.5 | 4.3 | 0.00 | 0.00 | 0.00 | 28 | 1045.6 |
| 20260503210225 | 72 | 211 | 4.3 | 5.2 | 0.00 | 0.00 | 0.00 | 26 | 1045.7 |
| 20260503205720 | 72 | 140 | 0.9 | 0.9 | 0.00 | 0.00 | 0.00 | 30 | 1045.7 |
| 20260503205216 | 71 | 148 | 0.0 | 0.9 | 0.00 | 0.00 | 0.00 | 29 | 1045.8 |
| 20260503204713 | 71 | 154 | 0.0 | 0.9 | 0.00 | 0.00 | 0.00 | 27 | 1045.7 |
| 20260503204211 | 72 | 160 | 3.5 | 5.2 | 0.00 | 0.00 | 0.00 | 27 | 1045.8 |
| 20260503203707 | 72 | 140 | 0.0 | 0.0 | 0.00 | 0.00 | 0.00 | 28 | 1045.8 |
| 20260503203205 | 71 | 348 | 1.7 | 1.7 | 0.00 | 0.00 | 0.00 | 32 | 1045.8 |
| 20260503202702 | 70 | 168 | 0.9 | 0.9 | 0.00 | 0.00 | 0.00 | 32 | 1046.1 |
| 20260503202200 | 70 | 140 | 0.0 | 0.9 | 0.00 | 0.00 | 0.00 | 29 | 1045.9 |